createdAt,value
2023-10-20T00:00:07.608Z,79.50
2023-10-20T00:02:35.363Z,79.50
2023-10-20T00:05:06.854Z,79.60
2023-10-20T00:07:34.236Z,79.50
2023-10-20T00:10:01.562Z,79.50
2023-10-20T00:12:28.896Z,79.60
2023-10-20T00:14:57.031Z,79.50
2023-10-20T00:17:26.004Z,79.70
2023-10-20T00:19:54.438Z,79.50
2023-10-20T00:22:21.810Z,79.40
2023-10-20T00:24:49.149Z,79.50
2023-10-20T00:27:16.664Z,79.60
2023-10-20T00:29:44.113Z,79.70
2023-10-20T00:32:11.889Z,79.60
2023-10-20T00:34:40.610Z,79.60
2023-10-20T00:37:08.016Z,79.70
2023-10-20T00:39:36.267Z,79.70
2023-10-20T00:42:03.788Z,79.80
2023-10-20T00:44:31.487Z,79.70
2023-10-20T00:46:59.517Z,79.80
2023-10-20T00:49:26.984Z,79.80
2023-10-20T00:51:55.754Z,80.00
2023-10-20T00:54:23.260Z,80.00
2023-10-20T00:56:50.711Z,79.90
2023-10-20T00:59:18.293Z,80.00
2023-10-20T01:01:46.596Z,80.00
2023-10-20T01:04:14.025Z,80.00
2023-10-20T01:06:41.508Z,80.10
2023-10-20T01:09:11.448Z,80.20
2023-10-20T01:11:39.969Z,80.20
2023-10-20T01:14:07.419Z,80.10
2023-10-20T01:16:34.867Z,80.20
2023-10-20T01:19:02.835Z,80.10
2023-10-20T01:21:30.168Z,80.40
2023-10-20T01:24:02.720Z,80.30
2023-10-20T01:26:30.534Z,80.30
2023-10-20T01:28:58.002Z,80.20
2023-10-20T01:31:25.372Z,80.30
2023-10-20T01:33:52.990Z,80.30
2023-10-20T01:36:20.297Z,80.30
2023-10-20T01:38:47.585Z,80.40
2023-10-20T01:41:16.254Z,80.30
2023-10-20T01:43:43.622Z,80.60
2023-10-20T01:46:10.915Z,80.60
2023-10-20T01:48:38.259Z,80.60
2023-10-20T01:51:05.588Z,80.70
2023-10-20T01:53:33.696Z,80.80
2023-10-20T01:56:01.106Z,80.80
2023-10-20T01:58:29.735Z,80.70
2023-10-20T02:00:57.117Z,81.00
2023-10-20T02:03:25.049Z,81.00
2023-10-20T02:05:52.999Z,80.90
2023-10-20T02:08:20.996Z,81.00
2023-10-20T02:10:48.372Z,81.20
2023-10-20T02:13:16.115Z,81.00
2023-10-20T02:15:47.860Z,81.10
2023-10-20T02:18:15.731Z,81.00
2023-10-20T02:20:44.486Z,81.00
2023-10-20T02:23:12.720Z,81.10
2023-10-20T02:25:40.776Z,81.10
2023-10-20T02:28:08.271Z,81.00
2023-10-20T02:30:35.637Z,81.00
2023-10-20T02:33:04.916Z,81.40
2023-10-20T02:35:32.292Z,81.40
2023-10-20T02:37:59.760Z,81.20
2023-10-20T02:40:27.206Z,81.10
2023-10-20T02:42:54.539Z,81.20
2023-10-20T02:45:22.047Z,81.40
2023-10-20T02:47:51.786Z,81.40
2023-10-20T02:50:20.637Z,81.20
2023-10-20T02:52:48.215Z,81.20
2023-10-20T02:55:15.675Z,81.20
2023-10-20T02:57:42.976Z,81.20
2023-10-20T03:00:16.037Z,81.00
2023-10-20T03:02:43.655Z,81.50
2023-10-20T03:05:11.273Z,81.50
2023-10-20T03:07:40.028Z,81.20
2023-10-20T03:10:08.342Z,81.20
2023-10-20T03:12:35.635Z,81.00
2023-10-20T03:15:05.121Z,80.90
2023-10-20T03:17:32.788Z,81.10
2023-10-20T03:20:00.444Z,81.10
2023-10-20T03:22:28.375Z,80.90
2023-10-20T03:24:57.018Z,80.50
2023-10-20T03:27:24.722Z,80.50
2023-10-20T03:29:52.202Z,80.80
2023-10-20T03:32:19.524Z,80.70
2023-10-20T03:34:47.588Z,80.40
2023-10-20T03:37:15.539Z,80.70
2023-10-20T03:39:44.597Z,80.60
2023-10-20T03:42:15.136Z,80.30
2023-10-20T03:44:44.847Z,80.50
2023-10-20T03:47:12.563Z,80.40
2023-10-20T03:49:40.049Z,80.40
2023-10-20T03:52:12.887Z,80.30
2023-10-20T03:54:40.201Z,80.30
2023-10-20T03:57:07.577Z,80.50
2023-10-20T03:59:36.314Z,80.40
2023-10-20T04:02:03.850Z,80.60
2023-10-20T04:04:31.681Z,80.40
2023-10-20T04:06:59.245Z,80.60
2023-10-20T04:09:26.573Z,80.50
2023-10-20T04:11:54.609Z,80.50
2023-10-20T04:14:22.173Z,80.50
2023-10-20T04:16:50.949Z,80.60
2023-10-20T04:19:18.259Z,80.60
2023-10-20T04:21:46.536Z,80.90
2023-10-20T04:24:13.822Z,80.70
2023-10-20T04:26:45.604Z,80.50
2023-10-20T04:29:13.217Z,80.50
2023-10-20T04:31:59.549Z,80.70
2023-10-20T04:34:46.838Z,80.70
2023-10-20T04:37:32.988Z,80.50
2023-10-20T04:40:19.082Z,80.60
2023-10-20T04:43:05.300Z,80.60
2023-10-20T04:45:32.595Z,80.50
2023-10-20T04:48:16.567Z,80.40
2023-10-20T04:51:10.424Z,80.80
2023-10-20T04:53:53.599Z,80.70
2023-10-20T04:56:42.239Z,80.80
2023-10-20T04:59:22.568Z,80.70
2023-10-20T05:01:51.128Z,80.60
2023-10-20T05:04:38.502Z,80.60
2023-10-20T05:07:11.180Z,80.60
2023-10-20T05:09:45.669Z,80.60
2023-10-20T05:12:13.727Z,80.60
2023-10-20T05:14:41.285Z,80.60
2023-10-20T05:17:12.018Z,80.20
2023-10-20T05:19:40.358Z,80.40
2023-10-20T05:22:10.520Z,80.50
2023-10-20T05:24:37.862Z,80.60
2023-10-20T05:27:05.141Z,80.60
2023-10-20T05:29:32.497Z,80.60
2023-10-20T05:31:59.927Z,81.30
2023-10-20T05:34:27.303Z,81.20
2023-10-20T05:36:55.930Z,81.40
2023-10-20T05:39:24.884Z,81.10
2023-10-20T05:41:52.189Z,81.20
2023-10-20T05:44:23.678Z,80.90
2023-10-20T05:46:51.937Z,80.90
2023-10-20T05:49:19.336Z,80.90
2023-10-20T05:51:46.868Z,80.70
2023-10-20T05:54:14.185Z,80.80
2023-10-20T05:56:42.894Z,80.80
2023-10-20T05:59:10.250Z,80.70
2023-10-20T06:01:37.710Z,80.70
2023-10-20T06:04:05.696Z,80.90
2023-10-20T06:06:33.195Z,80.90
2023-10-20T06:09:00.546Z,80.60
2023-10-20T06:11:27.920Z,80.70
2023-10-20T06:13:56.614Z,80.80
2023-10-20T06:16:25.496Z,80.90
2023-10-20T06:18:52.983Z,80.50
2023-10-20T06:21:20.329Z,81.00
2023-10-20T06:23:47.784Z,81.10
2023-10-20T06:26:17.986Z,80.80
2023-10-20T06:28:47.855Z,81.00
2023-10-20T06:31:35.489Z,80.80
2023-10-20T06:34:24.558Z,80.80
2023-10-20T06:37:00.642Z,80.90
2023-10-20T06:39:28.244Z,80.80
2023-10-20T06:41:55.583Z,80.60
2023-10-20T06:44:27.488Z,80.80
2023-10-20T06:46:57.539Z,81.00
2023-10-20T06:49:24.930Z,80.90
2023-10-20T06:51:52.369Z,81.30
2023-10-20T06:54:19.719Z,81.30
2023-10-20T06:56:47.310Z,81.30
2023-10-20T06:59:15.171Z,81.20
2023-10-20T07:01:44.694Z,81.00
2023-10-20T07:04:14.670Z,81.00
2023-10-20T07:06:42.195Z,81.20
2023-10-20T07:09:13.121Z,81.20
2023-10-20T07:11:41.105Z,81.20
2023-10-20T07:14:08.553Z,81.10
2023-10-20T07:16:36.245Z,81.30
2023-10-20T07:19:04.893Z,81.50
2023-10-20T07:21:33.590Z,81.40
2023-10-20T07:24:02.878Z,81.50
2023-10-20T07:26:30.398Z,81.50
2023-10-20T07:28:57.803Z,81.10
2023-10-20T07:31:27.371Z,81.20
2023-10-20T07:33:54.953Z,81.40
2023-10-20T07:36:22.328Z,81.70
2023-10-20T07:38:51.758Z,81.60
2023-10-20T07:41:19.414Z,81.60
2023-10-20T07:43:46.752Z,81.80
2023-10-20T07:46:18.424Z,81.80
2023-10-20T07:48:46.375Z,81.50
2023-10-20T07:51:14.118Z,81.70
2023-10-20T07:53:41.642Z,81.40
2023-10-20T07:56:10.919Z,81.50
2023-10-20T07:58:38.425Z,81.40
2023-10-20T08:01:07.621Z,81.50
2023-10-20T08:03:35.147Z,81.30
2023-10-20T08:06:04.936Z,81.10
2023-10-20T08:08:33.731Z,80.90
2023-10-20T08:11:04.788Z,81.10
2023-10-20T08:13:37.432Z,81.30
2023-10-20T08:16:06.620Z,81.40
2023-10-20T08:18:36.225Z,81.30
2023-10-20T08:21:05.017Z,81.10
2023-10-20T08:23:32.679Z,81.00
2023-10-20T08:26:00.112Z,80.90
2023-10-20T08:28:28.544Z,80.80
2023-10-20T08:31:07.896Z,80.50
2023-10-20T08:33:35.665Z,80.90
2023-10-20T08:36:12.372Z,81.10
2023-10-20T08:38:40.988Z,81.20
2023-10-20T08:41:13.794Z,81.00
2023-10-20T08:43:42.523Z,80.80
2023-10-20T08:46:12.289Z,80.70
2023-10-20T08:48:40.945Z,80.90
2023-10-20T08:51:09.589Z,80.60
2023-10-20T08:53:37.848Z,80.80
2023-10-20T08:56:10.311Z,80.80
2023-10-20T08:58:37.862Z,80.60
2023-10-20T09:01:07.053Z,80.90
2023-10-20T09:03:43.222Z,80.90
2023-10-20T09:06:15.305Z,80.90
2023-10-20T09:08:44.720Z,80.80
2023-10-20T09:11:13.321Z,80.70
2023-10-20T09:13:42.328Z,80.60
2023-10-20T09:16:11.514Z,80.50
2023-10-20T09:18:44.843Z,80.60
2023-10-20T09:21:14.590Z,80.80
2023-10-20T09:23:53.453Z,80.90
2023-10-20T09:26:21.659Z,80.40
2023-10-20T09:28:49.674Z,80.70
2023-10-20T09:31:17.485Z,80.50
2023-10-20T09:33:46.332Z,80.70
2023-10-20T09:36:14.567Z,80.90
2023-10-20T09:38:45.666Z,81.10
2023-10-20T09:41:14.126Z,81.00
2023-10-20T09:43:48.264Z,80.90
2023-10-20T09:46:37.259Z,80.80
2023-10-20T09:49:15.757Z,80.80
2023-10-20T09:51:47.221Z,80.70
2023-10-20T09:54:16.549Z,80.80
2023-10-20T09:56:46.073Z,80.70
2023-10-20T09:59:17.945Z,80.90
2023-10-20T10:01:45.501Z,80.80
2023-10-20T10:04:14.380Z,80.80
2023-10-20T10:06:47.056Z,80.90
2023-10-20T10:09:16.397Z,80.80
2023-10-20T10:11:44.303Z,81.10
2023-10-20T10:14:20.601Z,81.20
2023-10-20T10:16:54.670Z,80.80
2023-10-20T10:19:29.230Z,80.70
2023-10-20T10:22:01.887Z,80.90
2023-10-20T10:24:37.541Z,80.90
2023-10-20T10:27:07.870Z,81.00
2023-10-20T10:29:55.120Z,80.90
2023-10-20T10:32:26.403Z,80.80
2023-10-20T10:34:58.014Z,80.90
2023-10-20T10:37:31.315Z,80.80
2023-10-20T10:40:10.278Z,80.80
2023-10-20T10:42:39.988Z,80.90
2023-10-20T10:45:19.826Z,80.90
2023-10-20T10:47:50.090Z,80.80
2023-10-20T10:50:25.798Z,80.70
2023-10-20T10:52:53.416Z,80.80
2023-10-20T10:55:21.151Z,80.70
2023-10-20T10:57:48.984Z,80.50
2023-10-20T11:00:19.858Z,80.70
2023-10-20T11:02:47.929Z,80.70
2023-10-20T11:05:17.125Z,80.50
2023-10-20T11:08:00.322Z,80.70
2023-10-20T11:10:28.649Z,80.60
2023-10-20T11:12:56.617Z,80.80
2023-10-20T11:15:27.064Z,80.90
2023-10-20T11:17:55.875Z,80.90
2023-10-20T11:20:23.492Z,80.80
2023-10-20T11:22:53.480Z,80.90
2023-10-20T11:25:22.949Z,80.90
2023-10-20T11:27:55.259Z,81.10
2023-10-20T11:30:26.641Z,80.90
2023-10-20T11:32:55.201Z,81.00
2023-10-20T11:35:25.755Z,80.90
2023-10-20T11:37:53.659Z,80.50
2023-10-20T11:40:23.056Z,80.80
2023-10-20T11:42:50.651Z,80.60
2023-10-20T11:45:18.523Z,80.60
2023-10-20T11:47:46.528Z,80.40
2023-10-20T11:50:16.766Z,80.50
2023-10-20T11:52:44.342Z,80.50
2023-10-20T11:55:12.890Z,80.70
2023-10-20T11:57:41.750Z,80.90
2023-10-20T12:00:11.077Z,81.10
2023-10-20T12:02:42.313Z,81.00
2023-10-20T12:05:10.363Z,80.70
2023-10-20T12:07:38.342Z,80.50
2023-10-20T12:10:07.543Z,80.50
2023-10-20T12:12:35.380Z,80.40
2023-10-20T12:15:05.100Z,80.60
2023-10-20T12:17:32.621Z,80.10
2023-10-20T12:20:00.305Z,80.10
2023-10-20T12:22:27.878Z,80.10
2023-10-20T12:24:55.320Z,80.20
2023-10-20T12:27:22.780Z,80.20
2023-10-20T12:29:50.178Z,80.40
2023-10-20T12:32:19.077Z,80.40
2023-10-20T12:34:46.592Z,80.50
2023-10-20T12:37:13.941Z,80.70
2023-10-20T12:39:41.664Z,80.60
2023-10-20T12:42:09.438Z,80.60
2023-10-20T12:44:37.280Z,80.70
2023-10-20T12:47:07.241Z,80.70
2023-10-20T12:49:36.202Z,80.30
2023-10-20T12:52:05.342Z,80.20
2023-10-20T12:54:32.884Z,80.30
2023-10-20T12:57:02.065Z,80.10
2023-10-20T12:59:29.989Z,80.20
2023-10-20T13:01:57.443Z,80.10
2023-10-20T13:04:25.068Z,80.40
2023-10-20T13:07:00.400Z,80.40
2023-10-20T13:09:28.555Z,80.40
2023-10-20T13:11:58.596Z,80.50
2023-10-20T13:14:26.275Z,80.40
2023-10-20T13:16:53.777Z,80.50
2023-10-20T13:19:21.172Z,80.40
2023-10-20T13:21:48.575Z,80.30
2023-10-20T13:24:17.623Z,80.40
2023-10-20T13:26:45.020Z,80.60
2023-10-20T13:29:12.378Z,80.50
2023-10-20T13:31:39.771Z,80.20
2023-10-20T13:34:07.101Z,80.00
2023-10-20T13:36:35.719Z,80.10
2023-10-20T13:39:16.480Z,80.10
2023-10-20T13:41:48.593Z,80.40
2023-10-20T13:44:17.581Z,80.50
2023-10-20T13:46:44.932Z,80.60
2023-10-20T13:49:12.764Z,80.90
2023-10-20T13:51:40.350Z,80.90
2023-10-20T13:54:07.683Z,80.90
2023-10-20T13:56:35.548Z,80.70
2023-10-20T13:59:04.749Z,80.70
2023-10-20T14:01:32.089Z,80.40
2023-10-20T14:04:00.080Z,80.30
2023-10-20T14:06:27.639Z,80.30
2023-10-20T14:08:55.146Z,80.70
2023-10-20T14:11:22.577Z,80.50
2023-10-20T14:13:49.930Z,80.40
2023-10-20T14:16:18.841Z,80.60
2023-10-20T14:18:46.336Z,80.80
2023-10-20T14:21:13.913Z,80.90
2023-10-20T14:23:41.546Z,80.50
2023-10-20T14:26:08.905Z,80.40
2023-10-20T14:28:36.230Z,80.30
2023-10-20T14:31:04.905Z,80.20
2023-10-20T14:33:35.364Z,80.20
2023-10-20T14:36:03.036Z,80.30
2023-10-20T14:38:33.236Z,80.20
2023-10-20T14:41:03.152Z,80.40
2023-10-20T14:43:33.411Z,80.40
2023-10-20T14:46:01.422Z,80.50
2023-10-20T14:48:29.209Z,80.50
2023-10-20T14:50:59.755Z,80.80
2023-10-20T14:53:27.344Z,80.60
2023-10-20T14:55:54.731Z,80.10
2023-10-20T14:58:22.044Z,80.40
2023-10-20T15:00:51.268Z,80.50
2023-10-20T15:03:23.062Z,80.70
2023-10-20T15:05:51.092Z,80.90
2023-10-20T15:08:20.983Z,80.80
2023-10-20T15:10:48.758Z,80.60
2023-10-20T15:13:16.272Z,80.20
2023-10-20T15:15:43.599Z,80.20
2023-10-20T15:18:11.238Z,80.40
2023-10-20T15:20:40.434Z,80.50
2023-10-20T15:23:17.504Z,80.40
2023-10-20T15:25:47.327Z,80.20
2023-10-20T15:28:14.801Z,80.60
2023-10-20T15:30:42.279Z,80.60
2023-10-20T15:33:09.836Z,80.70
2023-10-20T15:35:39.126Z,80.60
2023-10-20T15:38:08.001Z,80.60
2023-10-20T15:40:35.367Z,80.40
2023-10-20T15:43:05.012Z,80.50
2023-10-20T15:45:33.097Z,80.20
2023-10-20T15:48:02.235Z,80.10
2023-10-20T15:50:30.023Z,80.20
2023-10-20T15:52:57.607Z,80.40
2023-10-20T15:55:25.231Z,80.40
2023-10-20T15:57:52.595Z,80.50
2023-10-20T16:00:22.109Z,80.70
2023-10-20T16:02:49.632Z,80.60
2023-10-20T16:05:17.533Z,80.50
2023-10-20T16:07:46.050Z,80.60
2023-10-20T16:10:13.576Z,80.70
2023-10-20T16:12:41.185Z,80.60
2023-10-20T16:15:09.609Z,80.40
2023-10-20T16:17:38.661Z,80.50
2023-10-20T16:20:06.881Z,80.50
2023-10-20T16:22:34.394Z,80.70
2023-10-20T16:25:02.042Z,80.90
2023-10-20T16:27:29.830Z,80.70
2023-10-20T16:29:59.279Z,80.90
2023-10-20T16:32:30.710Z,80.60
2023-10-20T16:34:59.745Z,80.80
2023-10-20T16:37:28.968Z,80.70
2023-10-20T16:39:56.521Z,80.70
2023-10-20T16:42:25.707Z,80.60
2023-10-20T16:44:53.712Z,80.90
2023-10-20T16:47:21.232Z,80.70
2023-10-20T16:49:52.050Z,80.80
2023-10-20T16:52:21.557Z,80.70
2023-10-20T16:54:52.613Z,81.00
2023-10-20T16:57:20.367Z,81.00
2023-10-20T16:59:48.123Z,81.10
2023-10-20T17:02:20.576Z,80.90
2023-10-20T17:04:48.386Z,81.20
2023-10-20T17:07:16.423Z,81.20
2023-10-20T17:09:45.199Z,81.00
2023-10-20T17:12:15.433Z,80.80
2023-10-20T17:14:43.411Z,81.10
2023-10-20T17:17:16.773Z,81.20
2023-10-20T17:19:44.356Z,81.10
2023-10-20T17:22:12.537Z,81.00
2023-10-20T17:24:40.061Z,81.40
2023-10-20T17:27:09.464Z,81.50
2023-10-20T17:29:37.307Z,81.70
2023-10-20T17:32:05.707Z,81.80
2023-10-20T17:34:33.417Z,82.20
2023-10-20T17:37:00.960Z,82.00
2023-10-20T17:39:32.101Z,81.70
2023-10-20T17:42:01.155Z,81.80
2023-10-20T17:44:30.646Z,81.90
2023-10-20T17:46:58.100Z,81.90
2023-10-20T17:49:25.503Z,81.80
2023-10-20T17:51:53.069Z,81.90
2023-10-20T17:54:20.498Z,81.80
2023-10-20T17:56:48.950Z,81.90
2023-10-20T17:59:17.515Z,81.90
2023-10-20T18:01:46.511Z,81.80
2023-10-20T18:04:14.407Z,81.80
2023-10-20T18:06:42.353Z,82.10
2023-10-20T18:09:09.782Z,82.20
2023-10-20T18:11:37.418Z,82.20
2023-10-20T18:14:05.051Z,82.50
2023-10-20T18:16:33.260Z,82.50
2023-10-20T18:19:02.308Z,82.50
2023-10-20T18:21:32.055Z,82.70
2023-10-20T18:24:00.029Z,82.70
2023-10-20T18:26:27.442Z,82.90
2023-10-20T18:28:55.070Z,82.80
2023-10-20T18:31:22.862Z,82.70
2023-10-20T18:33:52.410Z,82.70
2023-10-20T18:36:21.655Z,82.70
2023-10-20T18:38:49.139Z,82.70
2023-10-20T18:41:17.038Z,82.50
2023-10-20T18:43:44.804Z,82.50
2023-10-20T18:46:12.421Z,82.70
2023-10-20T18:48:40.209Z,82.60
2023-10-20T18:51:09.721Z,82.70
2023-10-20T18:53:39.574Z,82.60
2023-10-20T18:56:08.348Z,82.50
2023-10-20T18:58:35.818Z,82.50
2023-10-20T19:01:03.656Z,82.70
2023-10-20T19:03:33.104Z,82.80
2023-10-20T19:06:01.320Z,82.50
2023-10-20T19:08:28.710Z,82.70
2023-10-20T19:11:00.699Z,82.90
2023-10-20T19:13:28.159Z,83.00
2023-10-20T19:15:56.215Z,83.10
2023-10-20T19:18:23.745Z,83.20
2023-10-20T19:20:56.987Z,83.20
2023-10-20T19:23:24.465Z,83.10
2023-10-20T19:26:00.947Z,83.20
2023-10-20T19:28:28.513Z,83.00
2023-10-20T19:31:01.123Z,83.20
2023-10-20T19:33:28.903Z,83.10
2023-10-20T19:35:56.467Z,83.10
2023-10-20T19:38:25.399Z,83.00
2023-10-20T19:40:54.310Z,83.00
2023-10-20T19:43:23.544Z,83.10
2023-10-20T19:45:51.178Z,83.00
2023-10-20T19:48:18.943Z,82.90
2023-10-20T19:50:46.561Z,82.90
2023-10-20T19:53:13.958Z,83.10
2023-10-20T19:55:42.389Z,83.10
2023-10-20T19:58:09.774Z,83.10
2023-10-20T20:00:40.580Z,83.10
2023-10-20T20:03:09.213Z,83.40
2023-10-20T20:05:37.351Z,83.40
2023-10-20T20:08:05.256Z,83.40
2023-10-20T20:10:32.662Z,83.30
2023-10-20T20:12:59.992Z,83.40
2023-10-20T20:15:27.570Z,83.40
2023-10-20T20:17:58.898Z,83.50
2023-10-20T20:20:26.458Z,83.70
2023-10-20T20:22:53.841Z,83.60
2023-10-20T20:25:21.227Z,83.70
2023-10-20T20:27:48.502Z,84.10
2023-10-20T20:30:16.001Z,84.10
2023-10-20T20:32:44.562Z,84.10
2023-10-20T20:35:13.379Z,84.10
2023-10-20T20:37:41.046Z,84.30
2023-10-20T20:40:09.135Z,84.50
2023-10-20T20:42:36.627Z,84.20
2023-10-20T20:45:04.821Z,84.20
2023-10-20T20:47:32.785Z,84.10
2023-10-20T20:50:00.706Z,84.30
2023-10-20T20:52:29.523Z,84.10
2023-10-20T20:54:57.622Z,84.20
2023-10-20T20:57:26.508Z,84.40
2023-10-20T20:59:53.896Z,84.60
2023-10-20T21:02:21.240Z,84.80
2023-10-20T21:04:48.633Z,84.80
2023-10-20T21:07:16.060Z,84.60
2023-10-20T21:09:44.783Z,84.60
2023-10-20T21:12:12.394Z,84.40
2023-10-20T21:14:41.262Z,84.50
2023-10-20T21:17:09.955Z,84.50
2023-10-20T21:19:37.646Z,84.70
2023-10-20T21:22:05.314Z,84.90
2023-10-20T21:24:33.002Z,84.90
2023-10-20T21:27:01.797Z,85.00
2023-10-20T21:29:29.223Z,85.00
2023-10-20T21:31:56.609Z,85.00
2023-10-20T21:34:24.071Z,85.00
2023-10-20T21:36:51.420Z,85.00
2023-10-20T21:39:20.157Z,85.10
2023-10-20T21:41:47.480Z,85.20
2023-10-20T21:44:16.324Z,85.20
2023-10-20T21:46:43.855Z,85.10
2023-10-20T21:49:11.238Z,85.00
2023-10-20T21:51:40.018Z,85.10
2023-10-20T21:54:08.119Z,85.10
2023-10-20T21:56:36.690Z,85.10
2023-10-20T21:59:04.245Z,85.30
2023-10-20T22:01:33.828Z,85.10
2023-10-20T22:04:01.222Z,85.30
2023-10-20T22:06:28.651Z,85.10
2023-10-20T22:08:56.052Z,84.90
2023-10-20T22:11:23.384Z,84.90
2023-10-20T22:13:50.766Z,84.60
2023-10-20T22:16:18.421Z,84.60
2023-10-20T22:18:49.806Z,84.60
2023-10-20T22:21:17.454Z,84.70
2023-10-20T22:23:44.952Z,84.60
2023-10-20T22:26:12.290Z,84.60
2023-10-20T22:28:39.615Z,84.40
2023-10-20T22:31:07.045Z,84.40
2023-10-20T22:33:34.527Z,84.40
2023-10-20T22:36:03.649Z,84.20
2023-10-20T22:38:31.656Z,84.30
2023-10-20T22:40:59.303Z,84.10
2023-10-20T22:43:26.948Z,84.30
2023-10-20T22:45:54.241Z,84.20
2023-10-20T22:48:21.709Z,84.10
2023-10-20T22:50:49.183Z,84.10
2023-10-20T22:53:17.902Z,83.90
2023-10-20T22:55:45.260Z,84.00
2023-10-20T22:58:12.557Z,84.00
2023-10-20T23:00:39.988Z,83.80
2023-10-20T23:03:07.510Z,83.70
2023-10-20T23:05:35.038Z,83.90
2023-10-20T23:08:07.127Z,83.90
2023-10-20T23:10:38.931Z,84.00
2023-10-20T23:13:06.413Z,84.10
2023-10-20T23:15:40.642Z,84.00
2023-10-20T23:18:08.164Z,84.00
2023-10-20T23:20:35.751Z,83.90
2023-10-20T23:23:03.422Z,83.80
2023-10-20T23:25:30.993Z,84.00
2023-10-20T23:27:59.822Z,84.20
2023-10-20T23:30:28.029Z,84.20
2023-10-20T23:32:55.446Z,84.20
2023-10-20T23:35:25.234Z,84.40
2023-10-20T23:37:52.686Z,84.40
2023-10-20T23:40:20.210Z,84.40
2023-10-20T23:42:47.582Z,84.30
2023-10-20T23:45:16.413Z,84.30
2023-10-20T23:47:43.927Z,84.40
2023-10-20T23:50:12.205Z,84.40
2023-10-20T23:52:39.652Z,84.40
2023-10-20T23:55:07.543Z,84.40
2023-10-20T23:57:34.854Z,84.40
